Time;durP1;ratioP1;P1;durP2;ratioP2;P2;SDS_P1;SDS_P2;PMS_P1;PMS_P2;Temp;Humidity;BMP_temperature;BMP_pressure;BME280_temperature;BME280_humidity;BME280_pressure;Samples;Min_cycle;Max_cycle;Signal;HPM_P1;HPM_P2
2021/12/15 05:10:11;;;;;;;50.75;30.25;;;;;;;2.64;71.84;101771.03;5618266;31;80582;-58
2021/12/15 05:13:14;;;;;;;46.88;28.17;;;;;;;2.41;79.09;101783.69;5596894;31;34111;-58
2021/12/15 05:16:17;;;;;;;44.75;29.48;;;;;;;2.39;75.33;101778.59;5584197;32;33528;-58
2021/12/15 05:19:20;;;;;;;44.63;29.12;;;;;;;2.74;72.65;101789.22;5594605;31;34105;-58
2021/12/15 05:22:23;;;;;;;50.25;28.70;;;;;;;2.69;77.90;101784.53;5603609;31;33131;-58
2021/12/15 05:25:25;;;;;;;46.58;29.12;;;;;;;2.73;75.58;101779.66;5599604;31;34425;-58
2021/12/15 05:28:27;;;;;;;44.05;28.60;;;;;;;2.80;71.53;101786.63;5603753;31;33330;-58
2021/12/15 05:31:30;;;;;;;48.72;28.92;;;;;;;2.84;81.38;101789.69;5600574;31;34297;-58
2021/12/15 05:34:32;;;;;;;42.83;29.08;;;;;;;2.89;72.05;101792.59;5583996;31;33805;-58
2021/12/15 05:37:35;;;;;;;44.60;28.38;;;;;;;2.88;70.96;101790.97;5576828;32;34177;-58
2021/12/15 05:40:37;;;;;;;49.50;29.90;;;;;;;2.90;71.48;101786.28;5564573;32;33690;-58
2021/12/15 05:43:42;;;;;;;45.45;28.92;;;;;;;2.92;70.77;101792.22;5570140;32;34262;-58
2021/12/15 05:46:44;;;;;;;45.15;28.33;;;;;;;2.78;73.30;101796.63;5576591;31;33646;-58
2021/12/15 05:49:49;;;;;;;41.83;27.58;;;;;;;2.95;70.90;101806.91;5577840;32;33842;-58
2021/12/15 05:52:51;;;;;;;41.90;28.70;;;;;;;2.96;70.70;101812.00;5564041;32;34410;-58
2021/12/15 05:55:54;;;;;;;41.80;28.85;;;;;;;2.98;73.03;101814.44;5574167;32;34335;-58
2021/12/15 05:58:56;;;;;;;43.30;29.45;;;;;;;3.11;70.95;101814.50;5577871;31;34411;-59
2021/12/15 06:02:01;;;;;;;46.78;29.95;;;;;;;3.21;70.05;101817.66;5581436;31;33601;-59
2021/12/15 06:05:04;;;;;;;47.95;29.48;;;;;;;3.18;69.96;101823.34;5582944;31;33602;-58
2021/12/15 06:08:07;;;;;;;47.55;31.48;;;;;;;3.03;70.66;101823.44;5581473;32;33587;-58
2021/12/15 06:11:12;;;;;;;49.05;30.98;;;;;;;2.99;79.49;101832.81;5582997;31;33706;-58
2021/12/15 06:14:22;;;;;;;44.40;30.02;;;;;;;3.36;77.72;101836.06;5581840;32;33161;-59
2021/12/15 06:17:28;;;;;;;47.15;31.40;;;;;;;3.41;81.06;101846.91;5582794;31;33676;-58
2021/12/15 06:20:32;;;;;;;48.70;32.25;;;;;;;3.65;80.27;101853.53;5574657;31;34669;-58
2021/12/15 06:23:34;;;;;;;49.92;30.65;;;;;;;3.85;76.39;101850.16;5568983;32;33646;-58
2021/12/15 06:26:37;;;;;;;56.33;33.22;;;;;;;3.64;71.08;101854.56;5568448;32;34264;-59
2021/12/15 06:29:39;;;;;;;51.90;34.42;;;;;;;3.44;69.69;101843.84;5569689;32;33291;-58
2021/12/15 06:32:42;;;;;;;58.72;32.67;;;;;;;3.33;70.51;101848.91;5570140;32;34212;-58
2021/12/15 06:35:52;;;;;;;49.45;33.55;;;;;;;3.23;70.28;101849.25;5570249;32;33691;-58
2021/12/15 06:38:57;;;;;;;49.05;31.73;;;;;;;3.16;70.99;101848.41;5569738;32;34259;-58
2021/12/15 06:42:00;;;;;;;51.67;31.98;;;;;;;3.10;70.88;101839.38;5553096;32;34411;-58
2021/12/15 06:45:05;;;;;;;49.90;33.13;;;;;;;3.05;72.07;101855.06;5566107;32;34242;-58
2021/12/15 06:58:15;;;;;;;50.67;32.42;;;;;;;3.47;69.75;101863.84;5558283;32;34392;-59
2021/12/15 07:01:18;;;;;;;47.22;31.55;;;;;;;3.46;69.74;101856.91;5569628;32;33542;-58
2021/12/15 07:04:23;;;;;;;52.83;34.22;;;;;;;3.39;69.64;101871.97;5569435;32;33607;-59
2021/12/15 07:07:29;;;;;;;47.72;32.17;;;;;;;3.40;69.72;101877.06;5568959;32;36127;-58
2021/12/15 07:10:37;;;;;;;57.65;32.92;;;;;;;3.30;70.55;101876.59;5562411;32;33633;-58
2021/12/15 07:13:40;;;;;;;48.63;32.03;;;;;;;3.34;69.65;101872.53;5564463;32;33619;-59
2021/12/15 07:16:46;;;;;;;53.85;34.28;;;;;;;3.32;69.83;101871.94;5569680;32;33643;-58
2021/12/15 07:20:06;;;;;;;49.45;34.25;;;;;;;3.40;70.00;101876.25;5569432;32;33486;-59
2021/12/15 07:23:15;;;;;;;50.45;33.17;;;;;;;3.29;69.87;101874.97;5569392;32;33600;-58
2021/12/15 07:26:19;;;;;;;51.10;32.75;;;;;;;3.11;70.29;101864.84;5569168;32;34280;-58
2021/12/15 07:29:26;;;;;;;47.70;33.05;;;;;;;3.04;70.41;101872.75;5569567;32;33223;-58
2021/12/15 07:32:28;;;;;;;50.65;32.60;;;;;;;3.03;70.50;101879.09;5567847;32;34316;-59
2021/12/15 07:35:33;;;;;;;50.10;32.70;;;;;;;2.97;70.73;101876.38;5569659;32;33576;-58
2021/12/15 07:38:43;;;;;;;50.00;32.33;;;;;;;3.03;70.29;101879.09;5568048;32;34362;-59
2021/12/15 07:41:51;;;;;;;48.33;33.17;;;;;;;3.04;72.07;101887.84;5569580;32;33527;-59
2021/12/15 07:44:56;;;;;;;48.20;33.00;;;;;;;3.17;69.91;101893.25;5567850;32;33758;-59
2021/12/15 07:48:04;;;;;;;49.95;33.13;;;;;;;3.08;69.75;101890.94;5568113;32;33701;-59
2021/12/15 07:51:10;;;;;;;47.83;33.85;;;;;;;3.11;70.29;101888.72;5569333;32;34169;-59
2021/12/15 07:54:14;;;;;;;50.33;33.75;;;;;;;3.09;69.74;101889.94;5568791;32;33754;-59
2021/12/15 07:57:19;;;;;;;52.75;33.60;;;;;;;3.06;72.61;101899.09;5569289;32;33578;-58
2021/12/15 08:00:24;;;;;;;54.47;33.05;;;;;;;3.20;72.89;101915.88;5569010;32;33280;-59
2021/12/15 08:03:32;;;;;;;47.80;33.60;;;;;;;3.21;71.67;101913.06;5562896;32;34323;-59
2021/12/15 08:06:42;;;;;;;50.28;33.55;;;;;;;3.17;69.93;101914.44;5562802;32;33660;-59
2021/12/15 08:09:52;;;;;;;57.00;35.78;;;;;;;3.12;73.88;101927.47;5565081;32;34387;-58
2021/12/15 08:12:58;;;;;;;54.08;37.85;;;;;;;3.21;70.41;101938.72;5568133;32;33397;-59
2021/12/15 08:16:04;;;;;;;55.75;38.00;;;;;;;3.35;69.08;101919.25;5567957;32;33670;-59
2021/12/15 08:19:08;;;;;;;57.28;36.00;;;;;;;3.37;73.23;101930.47;5549605;32;33224;-59
2021/12/15 08:22:11;;;;;;;53.10;36.95;;;;;;;3.37;69.39;101935.78;5564681;32;33656;-59
2021/12/15 08:25:20;;;;;;;65.28;38.78;;;;;;;3.38;69.45;101940.09;5567482;32;33706;-58
2021/12/15 08:28:23;;;;;;;58.72;38.25;;;;;;;3.37;69.91;101938.44;5558316;32;34338;-58
2021/12/15 08:31:26;;;;;;;56.00;36.65;;;;;;;3.37;69.22;101941.06;5549102;32;33578;-59
2021/12/15 08:34:29;;;;;;;60.67;38.78;;;;;;;3.71;88.59;101955.37;5565143;32;33511;-59
2021/12/15 08:37:32;;;;;;;56.05;37.65;;;;;;;3.88;68.68;101953.22;5564695;32;33569;-59
2021/12/15 08:40:36;;;;;;;59.30;39.00;;;;;;;3.81;68.06;101949.69;5567771;32;33714;-59
2021/12/15 08:43:40;;;;;;;61.33;36.67;;;;;;;3.77;69.08;101954.56;5559103;32;34277;-59
2021/12/15 08:46:46;;;;;;;59.05;37.35;;;;;;;3.87;68.12;101956.88;5566801;32;34322;-59
2021/12/15 08:49:49;;;;;;;61.17;39.35;;;;;;;3.68;69.20;101959.22;5567992;32;33579;-59
2021/12/15 08:52:53;;;;;;;59.28;38.65;;;;;;;3.80;69.48;101963.97;5568444;32;33640;-59
2021/12/15 08:55:57;;;;;;;60.45;38.55;;;;;;;3.72;70.11;101957.81;5568476;32;34383;-58
2021/12/15 08:59:01;;;;;;;54.42;37.63;;;;;;;3.75;70.18;101953.97;5568392;32;33610;-59
2021/12/15 09:02:03;;;;;;;57.42;38.50;;;;;;;4.30;88.78;101959.28;5567929;32;33687;-59
2021/12/15 09:05:07;;;;;;;64.05;40.25;;;;;;;4.23;70.08;101962.72;5567120;32;34318;-58
2021/12/15 09:08:10;;;;;;;58.97;39.17;;;;;;;4.12;70.08;101952.69;5548900;32;33933;-59
2021/12/15 09:11:15;;;;;;;63.53;39.85;;;;;;;4.04;70.07;101952.88;5548601;32;33801;-59
2021/12/15 09:14:19;;;;;;;62.37;39.43;;;;;;;4.05;70.86;101951.03;5551867;32;34292;-58
2021/12/15 09:17:22;;;;;;;62.97;40.80;;;;;;;4.08;70.94;101954.12;5553077;32;33229;-59
2021/12/15 09:20:28;;;;;;;61.80;40.58;;;;;;;4.11;70.61;101958.22;5563667;32;32085;-59
2021/12/15 09:23:31;;;;;;;60.70;39.88;;;;;;;4.17;72.35;101955.59;5566972;32;34272;-59
2021/12/15 09:26:34;;;;;;;65.00;42.55;;;;;;;4.45;82.86;101954.63;5567371;32;33571;-59
2021/12/15 09:29:39;;;;;;;65.82;41.22;;;;;;;4.57;69.39;101942.41;5566643;32;34268;-59
2021/12/15 09:32:43;;;;;;;65.50;42.90;;;;;;;4.39;69.83;101950.12;5564592;32;33583;-58
2021/12/15 09:35:47;;;;;;;74.70;43.63;;;;;;;4.47;70.17;101950.78;5561226;32;33181;-59
2021/12/15 09:39:05;;;;;;;65.05;40.85;;;;;;;4.57;69.01;101942.41;5564581;31;33710;-59
2021/12/15 09:42:16;;;;;;;65.97;42.92;;;;;;;4.67;68.91;101944.69;5564769;32;34335;-59
2021/12/15 09:45:36;;;;;;;64.37;40.25;;;;;;;4.52;69.67;101942.19;5565569;32;34253;-58
2021/12/15 10:02:41;;;;;;;77.40;45.72;;;;;;;5.24;68.04;101940.59;5562958;32;33318;-58
2021/12/15 10:06:04;;;;;;;70.12;42.78;;;;;;;5.24;68.22;101945.09;5559522;32;34376;-59
2021/12/15 10:17:25;;;;;;;60.12;39.78;;;;;;;5.22;68.67;101945.28;5569379;32;33693;-59
2021/12/15 10:19:34;;;;;;;64.12;41.97;;;;;;;5.30;69.11;101952.25;5562348;32;33575;-59
2021/12/15 10:25:49;;;;;;;64.05;42.58;;;;;;;5.54;70.25;101937.47;5563489;32;32216;-59
2021/12/15 10:28:52;;;;;;;64.85;41.60;;;;;;;5.63;68.21;101941.56;5555970;32;34326;-59
2021/12/15 10:32:03;;;;;;;71.55;41.30;;;;;;;5.55;68.20;101939.91;5563278;32;33607;-59
2021/12/15 10:35:12;;;;;;;73.45;41.40;;;;;;;5.64;68.28;101941.34;5558829;32;33833;-58
2021/12/15 10:38:26;;;;;;;65.55;42.58;;;;;;;5.78;68.30;101944.75;5564265;32;34373;-59
2021/12/15 10:41:33;;;;;;;61.78;41.00;;;;;;;5.89;67.34;101948.63;5557299;32;33593;-59
2021/12/15 10:44:35;;;;;;;63.85;41.15;;;;;;;6.06;67.06;101951.66;5550132;32;34098;-59
2021/12/15 10:47:49;;;;;;;67.53;41.90;;;;;;;6.06;69.28;101956.97;5556358;32;34315;-59
2021/12/15 10:50:53;;;;;;;60.12;39.72;;;;;;;6.25;67.11;101934.75;5568386;32;33747;-59
2021/12/15 10:53:59;;;;;;;60.08;39.22;;;;;;;6.34;66.27;101938.81;5569040;32;34321;-59
2021/12/15 10:57:06;;;;;;;63.15;37.83;;;;;;;6.28;65.76;101949.50;5568798;32;33696;-58
2021/12/15 11:00:13;;;;;;;56.30;39.03;;;;;;;6.31;66.46;101949.91;5568671;32;33188;-59
2021/12/15 11:03:23;;;;;;;54.90;37.85;;;;;;;6.28;65.19;101952.97;5569083;32;33780;-59
2021/12/15 11:06:59;;;;;;;82.00;48.45;;;;;;;6.42;66.09;101951.06;5566239;32;33620;-59
2021/12/15 11:10:10;;;;;;;86.82;51.67;;;;;;;6.86;66.36;101940.53;5568752;32;33663;-59
2021/12/15 11:13:14;;;;;;;85.50;49.00;;;;;;;6.79;68.71;101937.94;5569029;32;33695;-59
2021/12/15 11:16:28;;;;;;;94.35;51.80;;;;;;;6.92;78.93;101942.31;5569114;32;34033;-59
2021/12/15 11:19:42;;;;;;;77.45;46.72;;;;;;;7.33;72.80;101944.44;5566784;32;33334;-59
2021/12/15 11:22:49;;;;;;;81.55;50.25;;;;;;;7.71;71.31;101938.06;5565073;32;33625;-59
2021/12/15 11:26:11;;;;;;;103.80;55.67;;;;;;;7.79;78.33;101940.47;5563834;32;33352;-59
2021/12/15 11:29:14;;;;;;;95.97;53.63;;;;;;;7.54;72.83;101937.84;5566478;32;32703;-58
2021/12/15 11:32:46;;;;;;;94.30;54.97;;;;;;;7.92;70.53;101937.63;5567491;32;33608;-59
2021/12/15 11:35:59;;;;;;;99.82;57.30;;;;;;;8.05;70.21;101943.88;5568136;32;33552;-59
2021/12/15 11:39:11;;;;;;;98.68;55.17;;;;;;;7.68;63.50;101930.50;5557573;32;33657;-59
2021/12/15 11:42:13;;;;;;;97.07;54.75;;;;;;;7.64;71.60;101935.47;5562006;32;33994;-59
2021/12/15 11:45:18;;;;;;;92.40;55.22;;;;;;;8.15;72.82;101936.94;5561433;32;33693;-59
2021/12/15 11:48:25;;;;;;;96.75;53.58;;;;;;;8.11;69.99;101937.59;5565510;32;34347;-59
2021/12/15 11:51:33;;;;;;;104.35;56.08;;;;;;;8.05;73.76;101925.16;5568210;32;33737;-59
2021/12/15 11:54:45;;;;;;;97.65;53.15;;;;;;;7.87;63.57;101926.78;5555285;32;33999;-59
2021/12/15 11:57:48;;;;;;;88.85;52.90;;;;;;;7.72;71.30;101924.53;5567869;32;34255;-59
2021/12/15 12:00:50;;;;;;;112.30;58.42;;;;;;;7.76;81.17;101925.69;5567795;32;34230;-59
2021/12/15 12:04:16;;;;;;;91.87;54.83;;;;;;;7.92;72.26;101929.63;5568332;32;33771;-59
2021/12/15 12:07:26;;;;;;;99.62;55.20;;;;;;;7.79;67.24;101920.97;5568356;32;33672;-58
2021/12/15 12:10:56;;;;;;;103.72;56.53;;;;;;;7.58;64.16;101922.22;5568222;32;33565;-58
2021/12/15 12:14:00;;;;;;;93.43;53.67;;;;;;;7.77;74.88;101919.31;5559573;31;34297;-59
2021/12/15 12:17:08;;;;;;;96.50;54.95;;;;;;;8.00;74.73;101920.47;5563926;32;33609;-58
2021/12/15 12:20:24;;;;;;;89.93;53.20;;;;;;;8.15;70.27;101914.75;5568017;32;33788;-59
2021/12/15 12:23:30;;;;;;;108.18;57.13;;;;;;;8.31;73.28;101921.28;5561611;32;33641;-59
2021/12/15 12:26:34;;;;;;;94.13;54.17;;;;;;;8.07;64.38;101923.06;5561927;32;34346;-58
2021/12/15 12:29:38;;;;;;;97.50;57.20;;;;;;;8.05;73.30;101928.66;5566995;32;32376;-59
2021/12/15 12:32:41;;;;;;;98.78;52.97;;;;;;;8.08;63.08;101908.66;5562831;32;31891;-59
2021/12/15 12:35:55;;;;;;;96.32;55.85;;;;;;;7.89;68.52;101924.72;5564207;32;33683;-59
2021/12/15 12:39:05;;;;;;;87.60;52.20;;;;;;;7.58;64.38;101914.19;5558285;32;33604;-59
2021/12/15 12:42:09;;;;;;;85.62;52.55;;;;;;;7.66;69.44;101921.94;5562265;32;33717;-59
2021/12/15 12:45:14;;;;;;;90.30;54.22;;;;;;;7.88;74.90;101928.44;5566543;32;33342;-59
2021/12/15 13:02:36;;;;;;;105.25;61.60;;;;;;;7.38;76.35;101915.22;5563916;32;33875;-59
2021/12/15 13:06:09;;;;;;;105.22;62.60;;;;;;;7.34;65.46;101908.72;5553596;32;33744;-59
2021/12/15 13:09:16;;;;;;;96.45;61.17;;;;;;;7.48;69.04;101902.22;5565123;32;33513;-59
2021/12/15 13:12:23;;;;;;;104.30;62.17;;;;;;;7.75;69.04;101901.91;5566977;32;34307;-59
2021/12/15 13:15:34;;;;;;;99.25;61.58;;;;;;;7.84;68.49;101903.22;5568008;32;33687;-59
2021/12/15 13:18:47;;;;;;;104.63;68.10;;;;;;;7.76;67.52;101900.87;5567924;32;33766;-59
2021/12/15 13:22:23;;;;;;;104.57;64.55;;;;;;;7.49;64.76;101893.16;5556736;32;33565;-59
2021/12/15 13:28:48;;;;;;;104.80;64.28;;;;;;;7.52;71.15;101890.06;5567761;32;34083;-59
2021/12/15 13:32:00;;;;;;;99.07;64.62;;;;;;;7.35;65.00;101886.34;5569940;32;33619;-59
2021/12/15 13:35:04;;;;;;;100.62;64.37;;;;;;;7.29;64.99;101887.22;5570420;32;33798;-59
2021/12/15 13:38:30;;;;;;;122.10;66.87;;;;;;;7.21;66.50;101893.66;5569902;32;34242;-59
2021/12/15 13:41:59;;;;;;;124.07;84.15;;;;;;;7.21;66.95;101893.66;5566031;32;34408;-59
2021/12/15 13:45:03;;;;;;;108.72;71.57;;;;;;;7.11;70.41;101900.53;5570216;32;33658;-59
2021/12/15 13:48:06;;;;;;;103.47;62.38;;;;;;;7.17;66.05;101900.47;5570185;32;34290;-59
2021/12/15 13:51:08;;;;;;;96.22;60.63;;;;;;;7.15;65.82;101901.72;5569659;32;33727;-59
2021/12/15 13:54:24;;;;;;;83.72;56.20;;;;;;;7.12;66.23;101904.81;5550805;32;33943;-59
2021/12/15 13:57:34;;;;;;;105.60;59.55;;;;;;;7.13;75.28;101901.13;5561073;32;34090;-59
2021/12/15 14:01:01;;;;;;;93.07;61.08;;;;;;;7.44;73.29;101895.66;5569721;32;34295;-59
2021/12/15 14:04:04;;;;;;;92.78;58.70;;;;;;;7.23;72.17;101904.13;5570000;32;33782;-59
2021/12/15 14:07:28;;;;;;;101.10;62.88;;;;;;;7.19;71.91;101908.25;5570225;32;33740;-59
2021/12/15 14:10:33;;;;;;;104.87;63.22;;;;;;;7.22;74.10;101910.50;5569673;32;34750;-59
2021/12/15 14:13:42;;;;;;;94.82;63.90;;;;;;;7.08;67.71;101912.44;5570082;32;33705;-59
2021/12/15 14:16:51;;;;;;;92.28;61.58;;;;;;;7.16;67.06;101914.84;5570430;32;33398;-59
2021/12/15 14:19:54;;;;;;;92.85;59.95;;;;;;;7.28;69.50;101915.75;5569740;32;34413;-59
2021/12/15 14:23:02;;;;;;;92.37;59.58;;;;;;;7.23;68.46;101920.12;5569320;32;33722;-59
2021/12/15 14:26:12;;;;;;;66.53;43.47;;;;;;;7.21;72.93;101927.50;5569564;32;34458;-59
2021/12/15 14:29:24;;;;;;;50.72;32.92;;;;;;;7.27;68.90;101922.13;5560913;32;33695;-59
2021/12/15 14:32:27;;;;;;;41.08;28.62;;;;;;;7.37;71.83;101924.28;5558472;32;33690;-59
2021/12/15 14:35:29;;;;;;;45.88;29.05;;;;;;;7.50;69.11;101916.12;5568173;31;33694;-59
2021/12/15 14:38:56;;;;;;;40.95;27.83;;;;;;;7.49;65.61;101914.50;5583606;31;34340;-59
2021/12/15 14:42:23;;;;;;;38.80;27.70;;;;;;;7.49;64.67;101905.69;5550687;32;33738;-58
2021/12/15 14:45:25;;;;;;;;;;;;;;;7.42;65.01;101896.94;5569263;32;34021;-59
2021/12/15 14:48:28;;;;;;;40.90;26.98;;;;;;;7.47;69.42;101910.44;5569115;32;33879;-59
2021/12/15 14:51:31;;;;;;;38.03;25.42;;;;;;;7.42;72.21;101918.28;5569192;32;34280;-59
2021/12/15 14:54:36;;;;;;;38.08;26.12;;;;;;;7.27;67.00;101919.44;5568912;32;33659;-58
2021/12/15 14:57:39;;;;;;;39.38;27.95;;;;;;;7.30;69.79;101923.53;5560824;32;33459;-59
2021/12/15 15:00:42;;;;;;;44.35;26.92;;;;;;;7.13;65.84;101925.13;5568444;32;34089;-59
2021/12/15 15:04:02;;;;;;;40.88;26.17;;;;;;;7.04;66.88;101916.59;5569343;32;33656;-59
2021/12/15 15:07:09;;;;;;;45.63;27.17;;;;;;;6.90;66.38;101904.41;5560660;32;33734;-59
2021/12/15 15:10:15;;;;;;;44.53;25.80;;;;;;;7.06;70.96;101917.19;5568984;32;33713;-59
2021/12/15 15:13:20;;;;;;;37.20;25.35;;;;;;;7.14;65.97;101916.09;5568806;32;34380;-59
2021/12/15 15:16:24;;;;;;;46.85;26.98;;;;;;;7.09;80.63;101918.63;5569516;32;33126;-59
2021/12/15 15:19:52;;;;;;;36.22;24.40;;;;;;;7.13;73.79;101909.94;5568969;32;34335;-58
2021/12/15 15:23:01;;;;;;;34.40;23.92;;;;;;;6.99;65.43;101903.12;5569875;32;33797;-59
2021/12/15 15:26:05;;;;;;;41.65;25.98;;;;;;;6.87;80.68;101920.84;5570082;32;33282;-59
2021/12/15 15:29:08;;;;;;;34.75;24.75;;;;;;;7.00;72.40;101910.88;5569943;32;33960;-58
2021/12/15 15:32:19;;;;;;;36.70;24.40;;;;;;;6.80;69.02;101905.72;5569162;32;34379;-59
2021/12/15 15:35:27;;;;;;;43.75;24.00;;;;;;;6.64;66.87;101902.78;5569398;32;33315;-59
2021/12/15 15:38:33;;;;;;;38.60;25.55;;;;;;;6.61;67.69;101913.84;5569449;32;33778;-59
2021/12/15 15:41:36;;;;;;;36.87;24.67;;;;;;;6.93;78.65;101922.66;5569853;32;33843;-58
2021/12/15 15:44:39;;;;;;;37.40;23.83;;;;;;;6.68;66.85;101922.63;5568395;32;33945;-59
2021/12/15 15:47:44;;;;;;;33.17;24.15;;;;;;;6.55;66.66;101926.19;5569816;32;33648;-58
2021/12/15 15:50:51;;;;;;;36.20;23.42;;;;;;;6.55;66.41;101939.50;5570040;32;33906;-58
2021/12/15 15:53:55;;;;;;;;;;;;;;;6.40;73.82;101941.66;5569092;32;33759;-58
2021/12/15 15:57:00;;;;;;;33.90;23.80;;;;;;;6.29;67.30;101943.97;5568011;32;33497;-58
2021/12/15 16:00:05;;;;;;;37.75;23.80;;;;;;;6.16;66.49;101948.53;5569650;32;34555;-58
2021/12/15 16:03:21;;;;;;;40.45;26.60;;;;;;;6.02;71.86;101943.25;5569661;32;35180;-58
2021/12/15 16:06:25;;;;;;;35.83;24.98;;;;;;;5.72;75.96;101947.44;5569691;32;33997;-58
2021/12/15 16:09:31;;;;;;;40.50;24.05;;;;;;;5.70;68.76;101950.34;5569806;32;33733;-58
2021/12/15 16:12:36;;;;;;;35.63;25.27;;;;;;;5.69;67.77;101964.63;5570021;32;33929;-58
2021/12/15 16:15:49;;;;;;;37.78;26.65;;;;;;;5.52;80.95;101972.25;5569898;32;34629;-58
2021/12/15 16:18:53;;;;;;;34.50;24.40;;;;;;;5.47;69.17;101966.75;5569712;32;33861;-58
2021/12/15 16:25:41;;;;;;;35.17;25.17;;;;;;;5.30;69.64;101963.72;5569877;32;34447;-56
2021/12/15 16:28:44;;;;;;;36.95;23.98;;;;;;;5.07;75.92;101965.97;5569833;32;33652;-56
2021/12/15 16:32:01;;;;;;;43.67;24.48;;;;;;;5.17;69.69;101963.72;5569500;32;33869;-56
2021/12/15 16:35:14;;;;;;;38.47;25.80;;;;;;;5.04;74.91;101961.87;5569953;32;33661;-56
2021/12/15 16:38:40;;;;;;;34.67;25.17;;;;;;;5.05;69.95;101960.84;5569585;32;34286;-56
2021/12/15 16:41:51;;;;;;;40.03;25.77;;;;;;;5.08;69.96;101963.09;5569352;32;34345;-56
2021/12/15 16:44:56;;;;;;;35.72;25.98;;;;;;;5.20;69.98;101960.66;5569635;32;33802;-56
2021/12/15 16:47:59;;;;;;;34.70;25.58;;;;;;;5.34;75.08;101964.91;5568612;32;34101;-56
2021/12/15 16:51:10;;;;;;;36.50;25.65;;;;;;;5.33;69.48;101962.44;5569698;32;33837;-56
2021/12/15 16:54:14;;;;;;;36.65;24.73;;;;;;;5.35;71.43;101968.41;5569185;32;33684;-56
2021/12/15 16:57:26;;;;;;;37.25;26.65;;;;;;;5.22;69.43;101965.75;5569534;32;34412;-56
2021/12/15 17:00:32;;;;;;;36.60;26.15;;;;;;;5.21;70.87;101966.78;5569600;32;33685;-56
2021/12/15 17:03:40;;;;;;;35.88;25.92;;;;;;;5.25;70.08;101955.50;5568759;32;34329;-56
